createdAt,value
2023-03-26T00:02:05.426Z,99058.20
2023-03-26T00:04:34.658Z,99057.23
2023-03-26T00:07:03.256Z,99054.36
2023-03-26T00:09:31.488Z,99053.67
2023-03-26T00:11:59.590Z,99046.58
2023-03-26T00:14:29.402Z,99044.48
2023-03-26T00:16:57.602Z,99042.98
2023-03-26T00:19:25.588Z,99043.67
2023-03-26T00:21:53.614Z,99043.15
2023-03-26T00:24:21.808Z,99040.91
2023-03-26T00:26:53.647Z,99040.70
2023-03-26T00:29:28.139Z,99038.96
2023-03-26T00:31:57.212Z,99039.81
2023-03-26T00:34:26.990Z,99038.84
2023-03-26T00:36:55.070Z,99041.89
2023-03-26T00:39:25.892Z,99039.45
2023-03-26T00:41:54.794Z,99035.92
2023-03-26T00:44:23.584Z,99036.06
2023-03-26T00:46:51.747Z,99030.20
2023-03-26T00:49:20.129Z,99029.75
2023-03-26T00:51:48.200Z,99028.56
2023-03-26T00:54:16.777Z,99028.45
2023-03-26T00:56:45.605Z,99028.46
2023-03-26T00:59:13.763Z,99034.27
2023-03-26T01:01:41.895Z,99034.14
2023-03-26T01:04:32.180Z,99033.97
2023-03-26T01:07:22.814Z,99033.60
2023-03-26T01:09:51.693Z,99025.77
2023-03-26T01:12:22.576Z,99025.45
2023-03-26T01:14:52.866Z,99020.66
2023-03-26T01:17:22.267Z,99018.88
2023-03-26T01:19:58.830Z,99021.81
2023-03-26T01:22:27.941Z,99021.96
2023-03-26T01:24:58.654Z,99020.36
2023-03-26T01:27:44.884Z,99015.39
2023-03-26T01:30:33.852Z,99012.98
2023-03-26T01:33:26.499Z,99006.09
2023-03-26T01:36:19.441Z,99007.81
2023-03-26T01:39:00.663Z,99008.65
2023-03-26T01:41:49.091Z,99005.44
2023-03-26T01:44:24.729Z,99002.90
2023-03-26T01:46:53.875Z,99000.05
2023-03-26T01:49:21.950Z,98992.95
2023-03-26T01:51:51.577Z,98991.35
2023-03-26T01:54:22.647Z,98992.11
2023-03-26T01:56:58.067Z,98985.80
2023-03-26T01:59:44.461Z,98987.60
2023-03-26T02:02:42.718Z,98987.84
2023-03-26T02:05:14.014Z,98984.58
2023-03-26T02:07:41.943Z,98985.28
2023-03-26T02:10:21.236Z,98980.17
2023-03-26T02:12:50.979Z,98978.87
2023-03-26T02:15:19.093Z,98979.21
2023-03-26T02:17:47.287Z,98972.79
2023-03-26T02:20:18.993Z,98971.66
2023-03-26T02:22:47.993Z,98971.05
2023-03-26T02:25:20.443Z,98967.88
2023-03-26T02:27:51.612Z,98966.92
2023-03-26T02:30:25.941Z,98962.73
2023-03-26T02:32:59.423Z,98959.48
2023-03-26T02:35:32.580Z,98960.42
2023-03-26T02:38:02.219Z,98968.56
2023-03-26T02:40:30.282Z,98978.40
2023-03-26T02:42:59.085Z,98980.92
2023-03-26T02:45:28.535Z,98975.98
2023-03-26T02:48:08.518Z,98974.14
2023-03-26T02:50:54.655Z,98974.86
2023-03-26T02:53:53.869Z,98975.67
2023-03-26T02:56:41.165Z,98970.86
2023-03-26T02:59:22.414Z,98974.56
2023-03-26T03:02:00.544Z,98973.06
2023-03-26T03:04:28.539Z,98979.27
2023-03-26T03:06:57.918Z,98980.31
2023-03-26T03:09:26.470Z,98981.27
2023-03-26T03:12:26.413Z,98989.23
2023-03-26T03:14:54.459Z,98986.57
2023-03-26T03:17:22.435Z,98989.30
2023-03-26T03:19:50.505Z,98985.61
2023-03-26T03:22:20.312Z,98976.94
2023-03-26T03:24:48.898Z,98969.73
2023-03-26T03:27:18.409Z,98974.64
2023-03-26T03:29:56.202Z,98969.26
2023-03-26T03:32:44.498Z,98973.79
2023-03-26T03:35:12.951Z,98974.58
2023-03-26T03:37:42.541Z,98978.20
2023-03-26T03:40:11.377Z,98984.23
2023-03-26T03:42:39.599Z,98984.40
2023-03-26T03:45:08.596Z,98982.38
2023-03-26T03:47:53.393Z,98986.55
2023-03-26T03:50:27.772Z,98986.69
2023-03-26T03:53:07.727Z,98985.67
2023-03-26T03:55:38.461Z,98987.19
2023-03-26T03:58:09.298Z,98985.45
2023-03-26T04:00:38.594Z,98983.32
2023-03-26T04:03:33.407Z,98986.67
2023-03-26T04:06:07.093Z,98985.23
2023-03-26T04:08:35.883Z,98981.60
2023-03-26T04:11:06.031Z,98983.72
2023-03-26T04:13:54.344Z,98990.95
2023-03-26T04:16:30.866Z,98987.18
2023-03-26T04:19:02.495Z,98984.65
2023-03-26T04:21:30.767Z,98983.59
2023-03-26T04:23:58.859Z,98978.38
2023-03-26T04:27:12.878Z,98972.35
2023-03-26T04:29:46.911Z,98969.67
2023-03-26T04:32:30.351Z,98976.60
2023-03-26T04:35:00.461Z,98975.31
2023-03-26T04:37:41.007Z,98975.04
2023-03-26T04:40:19.564Z,98973.36
2023-03-26T04:43:18.297Z,98970.15
2023-03-26T04:45:53.551Z,98968.81
2023-03-26T04:48:23.047Z,98970.75
2023-03-26T04:50:51.322Z,98966.32
2023-03-26T04:53:21.738Z,98967.36
2023-03-26T04:56:45.663Z,98966.02
2023-03-26T04:59:52.296Z,98964.21
2023-03-26T05:02:20.775Z,98964.46
2023-03-26T05:04:57.323Z,98967.92
2023-03-26T05:07:27.987Z,98965.16
2023-03-26T05:09:57.762Z,98968.46
2023-03-26T05:12:36.202Z,98967.96
2023-03-26T05:15:09.337Z,98963.04
2023-03-26T05:17:46.700Z,98960.17
2023-03-26T05:20:24.897Z,98956.46
2023-03-26T05:22:53.896Z,98960.27
2023-03-26T05:25:28.659Z,98958.00
2023-03-26T05:27:57.400Z,98954.95
2023-03-26T05:30:28.621Z,98950.54
2023-03-26T05:32:59.883Z,98953.00
2023-03-26T05:35:32.078Z,98949.42
2023-03-26T05:38:00.112Z,98952.34
2023-03-26T05:40:28.827Z,98954.36
2023-03-26T05:43:02.003Z,98952.84
2023-03-26T05:45:39.346Z,98948.89
2023-03-26T05:48:19.648Z,98950.48
2023-03-26T05:50:52.911Z,98951.20
2023-03-26T05:53:22.961Z,98951.36
2023-03-26T05:56:10.176Z,98955.77
2023-03-26T05:58:42.451Z,98955.55
2023-03-26T06:01:29.669Z,98955.84
2023-03-26T06:04:17.692Z,98953.34
2023-03-26T06:06:57.998Z,98951.94
2023-03-26T06:09:26.833Z,98951.97
2023-03-26T06:11:55.046Z,98953.05
2023-03-26T06:14:23.517Z,98951.25
2023-03-26T06:17:14.312Z,98961.00
2023-03-26T06:20:01.258Z,98965.88
2023-03-26T06:22:37.896Z,98971.86
2023-03-26T06:25:17.646Z,98974.92
2023-03-26T06:28:01.404Z,98978.54
2023-03-26T06:30:55.191Z,98978.95
2023-03-26T06:33:43.937Z,98979.86
2023-03-26T06:36:13.795Z,98973.40
2023-03-26T06:38:42.166Z,98976.73
2023-03-26T06:41:10.834Z,98981.04
2023-03-26T06:43:59.995Z,98976.69
2023-03-26T06:46:38.030Z,98978.48
2023-03-26T06:49:31.939Z,98978.14
2023-03-26T06:52:17.526Z,98973.39
2023-03-26T06:54:48.352Z,98969.96
2023-03-26T06:57:37.733Z,98971.10
2023-03-26T07:00:34.688Z,98973.64
2023-03-26T07:03:24.250Z,98974.59
2023-03-26T07:06:11.189Z,98967.50
2023-03-26T07:08:59.303Z,98966.64
2023-03-26T07:11:27.476Z,98966.19
2023-03-26T07:14:14.389Z,98960.48
2023-03-26T07:17:00.108Z,98959.48
2023-03-26T07:19:52.889Z,98961.21
2023-03-26T07:22:25.789Z,98962.71
2023-03-26T07:25:07.218Z,98964.85
2023-03-26T07:28:29.415Z,98964.39
2023-03-26T07:31:42.780Z,98961.96
2023-03-26T07:35:15.958Z,98959.91
2023-03-26T07:38:02.671Z,98964.79
2023-03-26T07:41:26.965Z,98962.07
2023-03-26T07:44:37.217Z,98956.87
2023-03-26T07:47:36.149Z,98966.08
2023-03-26T07:50:36.966Z,98962.41
2023-03-26T07:53:23.876Z,98963.34
2023-03-26T07:56:14.656Z,98960.02
2023-03-26T07:59:21.344Z,98955.53
2023-03-26T08:02:20.460Z,98952.55
2023-03-26T08:05:00.234Z,98950.72
2023-03-26T08:08:14.090Z,98951.98
2023-03-26T08:10:52.231Z,98949.78
2023-03-26T08:13:28.058Z,98946.05
2023-03-26T08:16:23.613Z,98942.45
2023-03-26T08:19:42.580Z,98945.31
2023-03-26T08:22:27.550Z,98941.52
2023-03-26T08:25:12.059Z,98938.48
2023-03-26T08:27:43.441Z,98937.77
2023-03-26T08:30:21.081Z,98935.86
2023-03-26T08:33:00.828Z,98933.27
2023-03-26T08:35:28.886Z,98931.89
2023-03-26T08:37:56.849Z,98933.82
2023-03-26T08:40:54.006Z,98934.02
2023-03-26T08:43:46.520Z,98929.15
2023-03-26T08:46:15.562Z,98926.95
2023-03-26T08:48:51.879Z,98927.87
2023-03-26T08:51:52.309Z,98924.38
2023-03-26T08:54:37.479Z,98925.14
2023-03-26T08:57:37.190Z,98926.67
2023-03-26T09:00:15.921Z,98924.14
2023-03-26T09:03:28.893Z,98920.00
2023-03-26T09:06:15.638Z,98920.55
2023-03-26T09:08:54.395Z,98919.11
2023-03-26T09:11:40.977Z,98920.48
2023-03-26T09:14:21.265Z,98915.83
2023-03-26T09:17:12.858Z,98917.53
2023-03-26T09:19:56.286Z,98919.73
2023-03-26T09:22:39.819Z,98913.44
2023-03-26T09:25:27.816Z,98911.31
2023-03-26T09:28:44.052Z,98912.33
2023-03-26T09:31:35.327Z,98908.84
2023-03-26T09:34:32.266Z,98908.34
2023-03-26T09:37:06.002Z,98911.58
2023-03-26T09:39:44.946Z,98910.90
2023-03-26T09:42:46.210Z,98910.00
2023-03-26T09:45:53.261Z,98908.67
2023-03-26T09:48:46.140Z,98915.66
2023-03-26T09:51:33.468Z,98912.11
2023-03-26T09:54:25.777Z,98912.72
2023-03-26T09:57:06.326Z,98906.69
2023-03-26T09:59:45.694Z,98907.88
2023-03-26T10:02:22.764Z,98906.30
2023-03-26T10:05:27.302Z,98904.11
2023-03-26T10:08:25.282Z,98907.58
2023-03-26T10:11:27.956Z,98908.91
2023-03-26T10:14:39.454Z,98916.24
2023-03-26T10:17:25.812Z,98914.08
2023-03-26T10:20:17.979Z,98917.20
2023-03-26T10:23:24.665Z,98913.00
2023-03-26T10:26:13.117Z,98902.95
2023-03-26T10:28:56.983Z,98904.19
2023-03-26T10:31:47.575Z,98906.13
2023-03-26T10:34:34.286Z,98895.14
2023-03-26T10:37:46.147Z,98889.23
2023-03-26T10:40:25.258Z,98881.58
2023-03-26T10:43:57.697Z,98882.71
2023-03-26T10:46:35.765Z,98886.30
2023-03-26T10:49:12.550Z,98882.79
2023-03-26T10:51:48.897Z,98875.73
2023-03-26T10:54:42.833Z,98872.85
2023-03-26T10:57:41.387Z,98875.21
2023-03-26T11:00:25.763Z,98869.15
2023-03-26T11:03:26.258Z,98872.17
2023-03-26T11:06:23.727Z,98876.75
2023-03-26T11:09:02.639Z,98880.27
2023-03-26T11:11:55.010Z,98876.30
2023-03-26T11:15:04.548Z,98874.66
2023-03-26T11:18:00.898Z,98868.10
2023-03-26T11:21:19.146Z,98860.98
2023-03-26T11:24:05.050Z,98868.61
2023-03-26T11:27:14.853Z,98861.34
2023-03-26T11:30:14.263Z,98864.67
2023-03-26T11:32:50.562Z,98869.94
2023-03-26T11:35:39.731Z,98871.67
2023-03-26T11:38:40.521Z,98868.15
2023-03-26T11:41:25.527Z,98862.90
2023-03-26T11:44:14.365Z,98860.49
2023-03-26T11:46:45.933Z,98854.50
2023-03-26T11:49:18.685Z,98852.59
2023-03-26T11:51:48.792Z,98851.48
2023-03-26T11:54:18.018Z,98856.09
2023-03-26T11:57:05.266Z,98858.77
2023-03-26T11:59:56.593Z,98855.08
2023-03-26T12:02:35.714Z,98853.44
2023-03-26T12:05:14.910Z,98844.93
2023-03-26T12:07:57.045Z,98848.35
2023-03-26T12:10:27.128Z,98847.43
2023-03-26T12:12:59.121Z,98850.24
2023-03-26T12:15:28.386Z,98856.65
2023-03-26T12:17:58.868Z,98858.64
2023-03-26T12:20:29.844Z,98853.98
2023-03-26T12:23:03.333Z,98858.20
2023-03-26T12:25:39.173Z,98860.44
2023-03-26T12:28:13.331Z,98865.12
2023-03-26T12:30:53.063Z,98872.86
2023-03-26T12:33:34.797Z,98869.12
2023-03-26T12:36:27.106Z,98867.00
2023-03-26T12:39:16.364Z,98869.54
2023-03-26T12:44:42.801Z,98866.49
2023-03-26T12:44:56.402Z,98863.62
2023-03-26T12:48:00.250Z,98864.38
2023-03-26T12:50:34.117Z,98864.24
2023-03-26T12:53:03.029Z,98871.15
2023-03-26T12:56:12.653Z,98871.08
2023-03-26T12:59:08.170Z,98863.17
2023-03-26T13:01:45.402Z,98868.70
2023-03-26T13:04:22.457Z,98863.66
2023-03-26T13:07:00.871Z,98857.04
2023-03-26T13:09:55.393Z,98855.29
2023-03-26T13:12:41.177Z,98854.79
2023-03-26T13:15:18.341Z,98864.27
2023-03-26T13:18:16.345Z,98879.39
2023-03-26T13:20:59.855Z,98881.59
2023-03-26T13:24:05.498Z,98884.16
2023-03-26T13:26:56.718Z,98880.66
2023-03-26T13:30:00.779Z,98885.09
2023-03-26T13:32:58.853Z,98885.55
2023-03-26T13:35:34.126Z,98888.79
2023-03-26T13:38:05.116Z,98887.80
2023-03-26T13:40:57.898Z,98898.59
2023-03-26T13:43:35.826Z,98894.86
2023-03-26T13:46:55.969Z,98889.54
2023-03-26T13:49:37.524Z,98883.66
2023-03-26T13:52:47.467Z,98874.52
2023-03-26T13:55:36.164Z,98873.36
2023-03-26T13:58:23.135Z,98874.19
2023-03-26T14:00:55.295Z,98872.95
2023-03-26T14:03:31.912Z,98869.52
2023-03-26T14:06:24.245Z,98861.89
2023-03-26T14:08:59.574Z,98862.29
2023-03-26T14:12:21.079Z,98860.45
2023-03-26T14:15:42.613Z,98864.19
2023-03-26T14:18:22.863Z,98865.96
2023-03-26T14:21:29.009Z,98863.69
2023-03-26T14:24:34.564Z,98872.81
2023-03-26T14:27:34.377Z,98876.64
2023-03-26T14:30:23.590Z,98867.84
2023-03-26T14:33:27.305Z,98869.01
2023-03-26T14:36:13.747Z,98867.72
2023-03-26T14:39:12.759Z,98870.78
2023-03-26T14:41:51.584Z,98869.56
2023-03-26T14:44:25.783Z,98876.61
2023-03-26T14:47:27.131Z,98876.84
2023-03-26T14:50:35.999Z,98875.11
2023-03-26T14:53:22.980Z,98865.57
2023-03-26T14:55:54.224Z,98863.36
2023-03-26T14:58:50.572Z,98864.57
2023-03-26T15:01:45.205Z,98865.21
2023-03-26T15:04:46.196Z,98861.94
2023-03-26T15:07:36.699Z,98867.17
2023-03-26T15:10:05.816Z,98863.80
2023-03-26T15:12:51.171Z,98866.87
2023-03-26T15:16:14.607Z,98868.35
2023-03-26T15:19:09.025Z,98873.73
2023-03-26T15:22:01.935Z,98869.95
2023-03-26T15:24:55.032Z,98872.75
2023-03-26T15:28:09.628Z,98871.05
2023-03-26T15:31:10.097Z,98870.95
2023-03-26T15:33:57.365Z,98867.34
2023-03-26T15:36:47.024Z,98871.08
2023-03-26T15:39:28.000Z,98876.81
2023-03-26T15:42:15.627Z,98877.73
2023-03-26T15:45:22.601Z,98881.85
2023-03-26T15:47:56.804Z,98881.39
2023-03-26T15:50:38.203Z,98884.29
2023-03-26T15:53:29.331Z,98887.55
2023-03-26T15:56:35.814Z,98890.55
2023-03-26T15:59:23.323Z,98886.96
2023-03-26T16:02:35.070Z,98883.31
2023-03-26T16:05:22.483Z,98884.42
2023-03-26T16:08:19.079Z,98882.95
2023-03-26T16:10:49.910Z,98885.51
2023-03-26T16:13:20.851Z,98882.99
2023-03-26T16:15:58.299Z,98884.38
2023-03-26T16:18:35.997Z,98882.77
2023-03-26T16:21:06.966Z,98883.54
2023-03-26T16:23:47.311Z,98883.68
2023-03-26T16:26:36.542Z,98890.02
2023-03-26T16:29:25.883Z,98896.90
2023-03-26T16:32:08.080Z,98896.39
2023-03-26T16:34:53.245Z,98896.45
2023-03-26T16:37:36.841Z,98898.91
2023-03-26T16:40:26.454Z,98898.98
2023-03-26T16:43:22.801Z,98902.59
2023-03-26T16:45:51.175Z,98901.43
2023-03-26T16:48:31.630Z,98900.50
2023-03-26T16:51:14.880Z,98900.94
2023-03-26T16:53:54.058Z,98904.15
2023-03-26T16:57:14.113Z,98900.17
2023-03-26T17:00:06.129Z,98897.08
2023-03-26T17:02:42.033Z,98898.87
2023-03-26T17:05:44.398Z,98900.16
2023-03-26T17:08:35.391Z,98908.08
2023-03-26T17:11:07.514Z,98912.27
2023-03-26T17:13:56.284Z,98916.80
2023-03-26T17:16:30.709Z,98921.92
2023-03-26T17:19:25.899Z,98919.30
2023-03-26T17:22:11.644Z,98919.27
2023-03-26T17:24:49.075Z,98923.04
2023-03-26T17:27:56.153Z,98923.09
2023-03-26T17:31:03.618Z,98919.79
2023-03-26T17:33:34.995Z,98925.52
2023-03-26T17:36:12.613Z,98929.74
2023-03-26T17:38:45.503Z,98927.21
2023-03-26T17:41:35.401Z,98929.02
2023-03-26T17:44:43.754Z,98931.76
2023-03-26T17:47:35.926Z,98934.88
2023-03-26T17:50:30.013Z,98933.02
2023-03-26T17:53:03.511Z,98935.84
2023-03-26T17:55:35.723Z,98932.39
2023-03-26T17:58:06.939Z,98936.79
2023-03-26T18:00:47.342Z,98933.23
2023-03-26T18:03:24.505Z,98932.59
2023-03-26T18:05:57.682Z,98932.69
2023-03-26T18:08:32.586Z,98931.80
2023-03-26T18:11:28.338Z,98934.75
2023-03-26T18:14:18.585Z,98934.80
2023-03-26T18:17:01.713Z,98933.77
2023-03-26T18:19:31.975Z,98935.55
2023-03-26T18:22:05.477Z,98934.48
2023-03-26T18:24:38.414Z,98934.30
2023-03-26T18:27:12.404Z,98935.55
2023-03-26T18:30:14.718Z,98934.56
2023-03-26T18:33:05.264Z,98935.65
2023-03-26T18:35:50.086Z,98937.73
2023-03-26T18:38:35.659Z,98938.17
2023-03-26T18:41:15.486Z,98938.52
2023-03-26T18:43:44.825Z,98939.84
2023-03-26T18:46:14.975Z,98934.21
2023-03-26T18:48:44.328Z,98931.13
2023-03-26T18:51:12.818Z,98934.59
2023-03-26T18:53:55.961Z,98926.89
2023-03-26T18:56:24.092Z,98928.45
2023-03-26T18:58:53.084Z,98923.11
2023-03-26T19:01:25.699Z,98921.03
2023-03-26T19:03:55.595Z,98914.54
2023-03-26T19:06:26.221Z,98909.32
2023-03-26T19:08:55.193Z,98909.89
2023-03-26T19:11:25.634Z,98908.44
2023-03-26T19:14:07.036Z,98907.34
2023-03-26T19:16:37.265Z,98904.71
2023-03-26T19:19:07.868Z,98903.64
2023-03-26T19:21:37.154Z,98900.45
2023-03-26T19:24:05.974Z,98898.46
2023-03-26T19:26:36.597Z,98894.02
2023-03-26T19:29:05.711Z,98891.77
2023-03-26T19:31:39.195Z,98895.20
2023-03-26T19:34:17.954Z,98893.94
2023-03-26T19:37:01.672Z,98887.56
2023-03-26T19:39:43.835Z,98881.94
2023-03-26T19:42:26.848Z,98875.55
2023-03-26T19:45:18.790Z,98875.42
2023-03-26T19:47:57.315Z,98878.83
2023-03-26T19:50:34.588Z,98881.46
2023-03-26T19:53:16.827Z,98878.61
2023-03-26T19:56:05.250Z,98870.91
2023-03-26T19:58:35.921Z,98871.85
2023-03-26T20:01:05.078Z,98871.23
2023-03-26T20:03:42.446Z,98870.45
2023-03-26T20:06:13.497Z,98866.50
2023-03-26T20:08:41.787Z,98864.13
2023-03-26T20:11:33.562Z,98863.77
2023-03-26T20:14:02.209Z,98868.91
2023-03-26T20:16:35.879Z,98872.02
2023-03-26T20:19:04.729Z,98869.96
2023-03-26T20:21:34.860Z,98870.80
2023-03-26T20:24:11.994Z,98868.38
2023-03-26T20:26:39.962Z,98865.78
2023-03-26T20:29:08.031Z,98859.89
2023-03-26T20:31:36.324Z,98858.55
2023-03-26T20:34:10.231Z,98855.64
2023-03-26T20:36:38.426Z,98854.94
2023-03-26T20:39:08.194Z,98857.73
2023-03-26T20:41:43.643Z,98859.02
2023-03-26T20:44:17.858Z,98861.16
2023-03-26T20:46:48.411Z,98856.09
2023-03-26T20:49:18.317Z,98857.84
2023-03-26T20:51:46.914Z,98859.85
2023-03-26T20:54:21.698Z,98858.42
2023-03-26T20:56:50.643Z,98857.57
2023-03-26T20:59:22.273Z,98856.48
2023-03-26T21:01:51.734Z,98856.40
2023-03-26T21:04:21.463Z,98857.73
2023-03-26T21:06:49.523Z,98859.71
2023-03-26T21:09:23.926Z,98859.87
2023-03-26T21:12:30.175Z,98863.27
2023-03-26T21:14:58.981Z,98867.04
2023-03-26T21:17:28.454Z,98863.73
2023-03-26T21:20:01.405Z,98865.20
2023-03-26T21:22:46.218Z,98865.64
2023-03-26T21:25:35.734Z,98860.09
2023-03-26T21:28:39.415Z,98858.52
2023-03-26T21:31:22.749Z,98859.54
2023-03-26T21:33:52.059Z,98858.27
2023-03-26T21:36:20.694Z,98854.76
2023-03-26T21:38:50.727Z,98857.08
2023-03-26T21:41:36.539Z,98851.71
2023-03-26T21:44:04.530Z,98845.19
2023-03-26T21:46:33.512Z,98842.44
2023-03-26T21:49:02.512Z,98836.45
2023-03-26T21:51:32.058Z,98837.98
2023-03-26T21:54:00.596Z,98836.52
2023-03-26T21:56:46.690Z,98836.08
2023-03-26T21:59:28.988Z,98836.72
2023-03-26T22:02:08.037Z,98838.26
2023-03-26T22:04:47.641Z,98836.38
2023-03-26T22:07:54.350Z,98835.23
2023-03-26T22:10:23.358Z,98834.64
2023-03-26T22:12:51.464Z,98834.52
2023-03-26T22:15:20.144Z,98833.02
2023-03-26T22:17:55.955Z,98830.70
2023-03-26T22:20:25.393Z,98833.23
2023-03-26T22:22:55.461Z,98834.17
2023-03-26T22:25:24.260Z,98830.66
2023-03-26T22:27:52.874Z,98834.05
2023-03-26T22:30:21.320Z,98838.33
2023-03-26T22:32:50.491Z,98835.27
2023-03-26T22:35:18.680Z,98835.59
2023-03-26T22:37:47.680Z,98835.34
2023-03-26T22:40:16.370Z,98835.19
2023-03-26T22:42:45.151Z,98831.99
2023-03-26T22:45:13.740Z,98832.21
2023-03-26T22:47:41.820Z,98829.07
2023-03-26T22:50:10.901Z,98828.76
2023-03-26T22:52:40.822Z,98823.41
2023-03-26T22:55:11.189Z,98825.52
2023-03-26T22:57:39.972Z,98822.10
2023-03-26T23:00:20.024Z,98822.99
2023-03-26T23:02:48.093Z,98822.05
2023-03-26T23:05:19.505Z,98820.39
2023-03-26T23:07:49.010Z,98818.40
2023-03-26T23:10:17.097Z,98815.88
2023-03-26T23:12:45.153Z,98812.40
2023-03-26T23:15:14.275Z,98804.77
2023-03-26T23:17:42.587Z,98804.33
2023-03-26T23:20:15.021Z,98806.83
2023-03-26T23:22:43.492Z,98811.37
2023-03-26T23:25:12.379Z,98812.17
2023-03-26T23:27:41.621Z,98811.11
2023-03-26T23:30:11.194Z,98810.58
2023-03-26T23:32:39.427Z,98812.33
2023-03-26T23:35:08.148Z,98813.91
2023-03-26T23:37:39.015Z,98816.12
2023-03-26T23:40:10.332Z,98817.63
2023-03-26T23:42:38.699Z,98819.64
2023-03-26T23:45:08.748Z,98817.83
2023-03-26T23:47:37.528Z,98822.18
2023-03-26T23:50:06.718Z,98828.63
2023-03-26T23:52:34.760Z,98823.61
2023-03-26T23:55:02.736Z,98825.62
2023-03-26T23:57:30.821Z,98822.99
2023-03-26T23:59:58.805Z,98819.39
